LSZB/BRN METAR and TAF weather

Enter ICAO airport designator
Station Type Date Time Source
LSZB METAR 2019/08/19 01:20 UTC NOAA

LSZB 190120Z AUTO 11006KT 080V150 9999 FEW016 SCT060 BKN080 17/16 Q1017


Station Type Date Time Source
LSZB Decoded METAR 2019/08/19 01:20 UTC NOAA

Station name not available
Aug 18, 2019 - 09:20 PM EDT / 2019.08.19 0120 UTC
Wind: from the ESE (110 degrees) at 7 MPH (6 KT) (direction variable):0
Visibility: greater than 7 mile(s):0
Sky conditions: mostly cloudy
Temperature: 62 F (17 C)
Dew Point: 60 F (16 C)
Relative Humidity: 93%
Pressure (altimeter): 30.03 in. Hg (1017 hPa)
ob: LSZB 190120Z AUTO 11006KT 080V150 9999 FEW016 SCT060 BKN080 17/16 Q1017
cycle: 1

Station Type Date Time Source
LSZB TAF 2014/12/22 20:03 UTC NOAA

TAF
AMD TAF
AMD LSZB 222054Z 2220/2224 CNL

Example: see airport list